Time;durP1;ratioP1;P1;durP2;ratioP2;P2;SDS_P1;SDS_P2;PMS_P1;PMS_P2;Temp;Humidity;BMP_temperature;BMP_pressure;BME280_temperature;BME280_humidity;BME280_pressure;Samples;Min_cycle;Max_cycle;Signal;HPM_P1;HPM_P2
2024/01/22 00:01:19;;;;;;;13.40;6.00;;;;;;;0.85;47.31;98309.07;105073;1258;99033;-79
2024/01/22 00:03:48;;;;;;;10.50;5.80;;;;;;;0.84;47.21;98309.66;104986;1257;97906;-80
2024/01/22 00:06:15;;;;;;;12.50;6.50;;;;;;;0.84;47.14;98308.62;104998;1269;98382;-81
2024/01/22 00:08:43;;;;;;;12.30;5.80;;;;;;;0.82;47.25;98305.56;104935;1257;103505;-80
2024/01/22 00:11:12;;;;;;;11.50;5.50;;;;;;;0.79;46.97;98302.27;105070;1256;101421;-81
2024/01/22 00:13:40;;;;;;;13.00;5.80;;;;;;;0.79;46.85;98298.39;105002;1257;100056;-74
2024/01/22 00:16:07;;;;;;;11.40;6.20;;;;;;;0.79;46.88;98293.10;105093;1256;97939;-74
2024/01/22 00:18:37;;;;;;;10.70;5.70;;;;;;;0.79;46.83;98289.15;104953;1257;98376;-75
2024/01/22 00:21:05;;;;;;;11.30;6.20;;;;;;;0.77;46.95;98289.16;104922;1257;102552;-74
2024/01/22 00:23:32;;;;;;;12.00;5.60;;;;;;;0.73;46.80;98291.73;105021;1259;101287;-74
2024/01/22 00:26:00;;;;;;;12.20;6.00;;;;;;;0.71;46.74;98296.91;104993;1257;100397;-75
2024/01/22 00:28:28;;;;;;;11.00;5.00;;;;;;;0.69;46.63;98296.75;105028;1256;97925;-73
2024/01/22 00:30:56;;;;;;;12.00;5.20;;;;;;;0.69;46.53;98299.02;104991;1253;98413;-75
2024/01/22 00:33:23;;;;;;;10.00;4.80;;;;;;;0.68;46.39;98294.70;105083;1266;103740;-75
2024/01/22 00:35:51;;;;;;;12.20;5.70;;;;;;;0.66;46.43;98292.59;105001;1257;100636;-75
2024/01/22 00:38:19;;;;;;;13.30;5.80;;;;;;;0.65;46.45;98291.90;105043;1256;100002;-75
2024/01/22 00:40:46;;;;;;;12.80;6.30;;;;;;;0.63;46.23;98287.64;104940;1268;97995;-75
2024/01/22 00:43:14;;;;;;;12.60;6.80;;;;;;;0.62;45.64;98287.54;105061;1256;98353;-74
2024/01/22 00:45:42;;;;;;;14.80;6.90;;;;;;;0.63;46.03;98284.33;105004;1269;102536;-73
2024/01/22 00:48:10;;;;;;;15.70;6.70;;;;;;;0.63;46.28;98290.85;105060;1258;99943;-74
2024/01/22 00:50:38;;;;;;;13.10;7.50;;;;;;;0.63;46.24;98299.91;104943;1257;99074;-74
2024/01/22 00:53:05;;;;;;;13.70;7.00;;;;;;;0.62;46.24;98298.73;105014;1253;99141;-74
2024/01/22 00:55:34;;;;;;;17.60;7.90;;;;;;;0.58;45.78;98300.51;104810;1259;98434;-74
2024/01/22 00:58:02;;;;;;;19.60;8.10;;;;;;;0.56;46.07;98303.89;105028;1257;102651;-74
2024/01/22 01:00:29;;;;;;;20.80;7.80;;;;;;;0.53;46.12;98301.09;105059;1267;99972;-74
2024/01/22 01:02:57;;;;;;;15.10;7.80;;;;;;;0.51;46.09;98288.32;105145;1253;99018;-81
2024/01/22 01:05:26;;;;;;;15.20;7.10;;;;;;;0.49;45.76;98288.37;105090;1256;98635;-80
2024/01/22 01:07:54;;;;;;;15.80;8.20;;;;;;;0.47;46.02;98293.09;105099;1256;98521;-74
2024/01/22 01:10:22;;;;;;;16.00;7.90;;;;;;;0.48;46.15;98291.26;105038;1258;103677;-81
2024/01/22 01:12:50;;;;;;;17.60;8.30;;;;;;;0.48;46.18;98289.52;105033;1256;100401;-81
2024/01/22 01:15:20;;;;;;;13.70;7.10;;;;;;;0.47;46.09;98298.65;104987;1266;99930;-80
2024/01/22 01:17:48;;;;;;;13.10;7.30;;;;;;;0.47;46.14;98296.52;105098;1253;98335;-81
2024/01/22 01:20:15;;;;;;;13.10;7.50;;;;;;;0.45;46.04;98297.70;105060;1256;97867;-81
2024/01/22 01:22:43;;;;;;;12.60;6.80;;;;;;;0.41;46.10;98295.52;105008;1253;103718;-81
2024/01/22 01:25:11;;;;;;;15.60;6.70;;;;;;;0.37;45.89;98293.90;105049;1256;101365;-80
2024/01/22 01:27:38;;;;;;;14.00;7.20;;;;;;;0.37;45.77;98291.27;104967;1255;100111;-77
2024/01/22 01:30:10;;;;;;;13.90;7.40;;;;;;;0.36;45.86;98285.45;105028;1256;97912;-77
2024/01/22 01:32:38;;;;;;;9.30;5.10;;;;;;;0.36;45.71;98288.14;105110;1256;97990;-78
2024/01/22 01:35:06;;;;;;;14.70;7.00;;;;;;;0.36;45.62;98287.80;105071;1256;103615;-78
2024/01/22 01:37:34;;;;;;;14.20;6.50;;;;;;;0.37;45.85;98289.67;105050;1257;101174;-78
2024/01/22 01:40:02;;;;;;;15.40;7.40;;;;;;;0.35;45.79;98286.04;105030;1256;99898;-78
2024/01/22 01:42:30;;;;;;;15.60;8.10;;;;;;;0.34;45.82;98288.11;104973;1253;99160;-81
2024/01/22 01:44:58;;;;;;;13.20;6.80;;;;;;;0.31;45.81;98286.20;104958;1258;98427;-78
2024/01/22 01:47:25;;;;;;;15.60;6.50;;;;;;;0.28;45.96;98274.60;105053;1275;103680;-78
2024/01/22 01:49:55;;;;;;;17.60;6.80;;;;;;;0.25;45.86;98272.02;104975;1254;100449;-79
2024/01/22 01:52:23;;;;;;;13.20;6.60;;;;;;;0.21;45.86;98280.71;105133;1254;99175;-79
2024/01/22 01:54:52;;;;;;;11.80;6.20;;;;;;;0.18;45.80;98282.16;105030;1256;97922;-78
2024/01/22 01:57:22;;;;;;;10.40;5.30;;;;;;;0.16;45.47;98279.48;105028;1256;98447;-79
2024/01/22 01:59:51;;;;;;;12.20;6.50;;;;;;;0.18;45.28;98280.45;104908;1256;135039;-80
2024/01/22 02:02:20;;;;;;;13.80;6.30;;;;;;;0.19;45.42;98272.17;105144;1256;101650;-77
2024/01/22 02:04:48;;;;;;;12.50;6.80;;;;;;;0.19;45.28;98269.77;105002;1268;99329;-81
2024/01/22 02:07:17;;;;;;;11.70;6.00;;;;;;;0.17;45.41;98261.60;105067;1257;98829;-74
2024/01/22 02:09:47;;;;;;;9.50;5.70;;;;;;;0.16;45.39;98265.73;105021;1256;97927;-73
2024/01/22 02:12:18;;;;;;;11.20;5.80;;;;;;;0.15;45.59;98263.82;105098;1256;103414;-73
2024/01/22 02:14:48;;;;;;;11.50;5.90;;;;;;;0.15;45.61;98264.77;105046;1256;100099;-73
2024/01/22 02:17:16;;;;;;;11.10;5.50;;;;;;;0.14;45.48;98269.81;105126;1253;97940;-76
2024/01/22 02:19:44;;;;;;;10.30;5.80;;;;;;;0.14;45.59;98269.81;105053;1253;97919;-74
2024/01/22 02:22:12;;;;;;;14.80;6.00;;;;;;;0.14;45.69;98265.54;105041;1256;98475;-74
2024/01/22 02:24:40;;;;;;;13.90;5.60;;;;;;;0.14;45.86;98252.82;105050;1257;103558;-75
2024/01/22 02:27:08;;;;;;;13.80;6.70;;;;;;;0.11;45.63;98247.55;105150;1256;100179;-78
2024/01/22 02:29:35;;;;;;;11.40;6.00;;;;;;;0.08;45.53;98237.16;105045;1256;99332;-80
2024/01/22 02:32:03;;;;;;;13.60;6.30;;;;;;;0.09;45.58;98235.91;105006;1269;99227;-80
2024/01/22 02:34:31;;;;;;;10.10;6.10;;;;;;;0.07;45.57;98232.51;104999;1256;98423;-81
2024/01/22 02:36:59;;;;;;;7.70;4.60;;;;;;;0.05;45.46;98223.12;104919;1259;102600;-81
2024/01/22 02:39:27;;;;;;;12.10;6.40;;;;;;;0.02;45.63;98220.52;104995;1275;100397;-81
2024/01/22 02:41:54;;;;;;;9.10;5.10;;;;;;;-0.00;45.33;98219.29;104997;1269;100069;-80
2024/01/22 02:44:22;;;;;;;7.80;4.50;;;;;;;-0.01;45.07;98217.27;105037;1256;99229;-81
2024/01/22 02:46:50;;;;;;;7.10;4.20;;;;;;;0.01;44.92;98215.10;105095;1256;98332;-79
2024/01/22 02:49:19;;;;;;;10.10;5.10;;;;;;;0.05;44.90;98211.05;105069;1256;103858;-79
2024/01/22 02:51:47;;;;;;;7.70;4.50;;;;;;;0.07;44.81;98205.59;105044;1256;112791;-78
2024/01/22 02:54:14;;;;;;;7.30;3.90;;;;;;;0.11;44.74;98200.48;104947;1258;99029;-79
2024/01/22 02:56:42;;;;;;;7.70;4.00;;;;;;;0.14;44.38;98192.96;104952;1257;97919;-79
2024/01/22 02:59:10;;;;;;;8.80;3.80;;;;;;;0.18;44.65;98187.55;104944;1258;98342;-80
2024/01/22 03:01:38;;;;;;;8.10;3.60;;;;;;;0.19;44.64;98185.83;105007;1257;102661;-80
2024/01/22 03:04:05;;;;;;;7.80;4.40;;;;;;;0.19;44.48;98179.77;105000;1252;101771;-76
2024/01/22 03:06:33;;;;;;;9.30;4.20;;;;;;;0.22;44.35;98175.69;104977;1258;99735;-79
2024/01/22 03:09:01;;;;;;;7.70;3.50;;;;;;;0.25;43.97;98176.84;104950;1259;97996;-78
2024/01/22 03:11:29;;;;;;;5.20;3.20;;;;;;;0.27;43.94;98175.38;104977;1253;98342;-78
2024/01/22 03:13:56;;;;;;;5.80;3.40;;;;;;;0.29;44.05;98171.32;104973;1253;103424;-82
2024/01/22 03:16:24;;;;;;;4.50;3.30;;;;;;;0.32;43.78;98173.08;105008;1253;100380;-79
2024/01/22 03:18:52;;;;;;;7.70;3.20;;;;;;;0.33;43.60;98171.36;104903;1258;100051;-79
2024/01/22 03:21:20;;;;;;;9.00;4.00;;;;;;;0.36;43.58;98170.41;104942;1257;97963;-82
2024/01/22 03:23:47;;;;;;;10.10;3.80;;;;;;;0.38;43.82;98165.13;104927;1253;98450;-80
2024/01/22 03:26:22;;;;;;;7.30;4.00;;;;;;;0.39;43.71;98165.20;104964;1256;102629;-79
2024/01/22 03:28:51;;;;;;;6.90;4.60;;;;;;;0.40;43.49;98157.16;105070;1256;101028;-79
2024/01/22 03:31:29;;;;;;;6.80;3.50;;;;;;;0.39;43.62;98152.42;104992;1252;99882;-79
2024/01/22 03:33:57;;;;;;;7.20;3.90;;;;;;;0.39;43.40;98150.70;105002;1256;98816;-77
2024/01/22 03:36:26;;;;;;;6.60;3.90;;;;;;;0.40;43.54;98144.77;105208;1256;98335;-79
2024/01/22 03:38:54;;;;;;;7.50;4.10;;;;;;;0.39;43.46;98138.30;105050;1254;102624;-79
2024/01/22 03:41:21;;;;;;;6.80;3.90;;;;;;;0.38;42.95;98138.23;105043;1264;100418;-81
2024/01/22 03:43:49;;;;;;;10.50;4.30;;;;;;;0.41;43.11;98136.23;105076;1253;100107;-76
2024/01/22 03:46:18;;;;;;;9.00;4.60;;;;;;;0.41;42.99;98134.96;105113;1253;98171;-78
2024/01/22 03:48:46;;;;;;;7.80;4.00;;;;;;;0.40;43.11;98133.28;105056;1256;98448;-79
2024/01/22 03:51:14;;;;;;;7.90;4.20;;;;;;;0.41;42.79;98134.30;105068;1259;103883;-78
2024/01/22 03:53:42;;;;;;;7.70;3.90;;;;;;;0.43;42.96;98135.34;105079;1259;101434;-78
2024/01/22 03:56:10;;;;;;;6.40;3.50;;;;;;;0.42;43.04;98131.45;105046;1258;99881;-77
2024/01/22 03:58:39;;;;;;;8.30;4.00;;;;;;;0.41;43.13;98135.11;105041;1256;97934;-77
2024/01/22 04:01:07;;;;;;;7.50;4.10;;;;;;;0.40;42.99;98125.31;105129;1275;98358;-78
2024/01/22 04:03:36;;;;;;;9.30;4.60;;;;;;;0.39;43.11;98125.75;105067;1266;111291;-75
2024/01/22 04:06:06;;;;;;;9.40;4.20;;;;;;;0.38;42.91;98124.93;105053;1256;100363;-77
2024/01/22 04:08:33;;;;;;;8.80;4.80;;;;;;;0.37;42.78;98134.02;105060;1256;99141;-78
2024/01/22 04:11:01;;;;;;;7.80;3.90;;;;;;;0.36;42.89;98134.99;105023;1256;97975;-76
2024/01/22 04:13:29;;;;;;;7.90;4.80;;;;;;;0.34;43.15;98138.33;105026;1256;99263;-75
2024/01/22 04:15:57;;;;;;;8.00;4.60;;;;;;;0.33;42.95;98139.32;105055;1256;103558;-77
2024/01/22 04:18:24;;;;;;;8.80;4.20;;;;;;;0.32;42.97;98131.28;105031;1256;101219;-77
2024/01/22 04:20:52;;;;;;;9.20;4.30;;;;;;;0.30;42.94;98121.48;105019;1256;99507;-78
2024/01/22 04:23:20;;;;;;;7.40;4.60;;;;;;;0.29;43.07;98116.83;104932;1257;97904;-78
2024/01/22 04:25:48;;;;;;;12.90;5.00;;;;;;;0.27;42.89;98115.22;104986;1259;99448;-78
2024/01/22 04:28:16;;;;;;;7.10;4.20;;;;;;;0.27;43.09;98124.44;105028;1256;103559;-76
2024/01/22 04:30:44;;;;;;;11.60;5.40;;;;;;;0.27;43.15;98122.12;104713;1253;100467;-79
2024/01/22 04:33:13;;;;;;;8.40;4.50;;;;;;;0.26;43.27;98117.75;105012;1253;99913;-80
2024/01/22 04:35:40;;;;;;;9.90;5.00;;;;;;;0.25;43.28;98115.52;104953;1259;97909;-79
2024/01/22 04:38:08;;;;;;;7.50;4.60;;;;;;;0.23;43.18;98110.27;104985;1259;98450;-80
2024/01/22 04:40:36;;;;;;;12.50;5.00;;;;;;;0.21;43.12;98110.80;105030;1256;102215;-75
2024/01/22 04:43:04;;;;;;;11.20;4.80;;;;;;;0.20;43.21;98109.30;104714;1253;100826;-73
2024/01/22 04:45:35;;;;;;;8.70;4.30;;;;;;;0.20;43.17;98116.92;104952;1257;100100;-74
2024/01/22 04:48:05;;;;;;;10.10;4.60;;;;;;;0.21;43.20;98118.05;104956;1258;97932;-75
2024/01/22 04:50:32;;;;;;;10.70;4.50;;;;;;;0.21;43.03;98114.84;105078;1256;98501;-74
2024/01/22 04:53:00;;;;;;;8.10;4.20;;;;;;;0.23;42.51;98124.43;104982;1256;102389;-74
2024/01/22 04:55:28;;;;;;;8.80;4.50;;;;;;;0.26;42.54;98128.40;105039;1253;101350;-75
2024/01/22 04:57:56;;;;;;;8.10;4.40;;;;;;;0.28;42.52;98126.24;104929;1257;99950;-73
2024/01/22 05:00:26;;;;;;;9.20;4.80;;;;;;;0.29;42.57;98129.21;104959;1267;97983;-73
2024/01/22 05:02:54;;;;;;;7.60;4.40;;;;;;;0.30;43.02;98126.29;104698;1253;98383;-74
2024/01/22 05:05:21;;;;;;;9.90;4.90;;;;;;;0.29;42.78;98130.42;105010;1255;103506;-73
2024/01/22 05:07:49;;;;;;;7.70;4.80;;;;;;;0.27;42.80;98134.67;104940;1253;108564;-74
2024/01/22 05:10:17;;;;;;;7.20;4.10;;;;;;;0.26;42.83;98134.73;104913;1257;99747;-74
2024/01/22 05:12:45;;;;;;;6.80;3.90;;;;;;;0.23;42.58;98131.80;104988;1259;97900;-73
2024/01/22 05:15:12;;;;;;;7.00;4.00;;;;;;;0.21;42.69;98136.97;105097;1253;99135;-74
2024/01/22 05:17:41;;;;;;;9.70;4.40;;;;;;;0.22;42.64;98136.22;104957;1257;102614;-75
2024/01/22 05:20:10;;;;;;;7.10;4.20;;;;;;;0.22;42.89;98133.23;104991;1257;101278;-74
2024/01/22 05:22:38;;;;;;;6.60;3.90;;;;;;;0.21;42.82;98132.23;104954;1259;98986;-74
2024/01/22 05:25:08;;;;;;;7.40;4.20;;;;;;;0.19;42.49;98123.31;104969;1263;97882;-73
2024/01/22 05:27:35;;;;;;;10.90;4.30;;;;;;;0.22;42.47;98124.45;105000;1259;98401;-74
2024/01/22 05:30:04;;;;;;;6.80;4.20;;;;;;;0.25;42.47;98114.65;105043;1256;102609;-73
2024/01/22 05:32:32;;;;;;;8.10;4.70;;;;;;;0.27;42.10;98112.70;105107;1256;101188;-74
2024/01/22 05:35:00;;;;;;;8.30;4.10;;;;;;;0.29;42.05;98098.59;105019;1259;99935;-73
2024/01/22 05:37:27;;;;;;;7.70;4.10;;;;;;;0.29;41.85;98101.58;104988;1253;99232;-74
2024/01/22 05:39:55;;;;;;;7.70;4.00;;;;;;;0.29;42.21;98106.86;104931;1259;98386;-74
2024/01/22 05:42:23;;;;;;;10.90;5.30;;;;;;;0.28;42.37;98104.66;104940;1259;102614;-73
2024/01/22 05:44:51;;;;;;;8.90;4.80;;;;;;;0.27;42.47;98105.98;104937;1266;101522;-73
2024/01/22 05:47:19;;;;;;;13.70;4.90;;;;;;;0.26;42.55;98103.60;104972;1259;99384;-74
2024/01/22 05:49:47;;;;;;;10.30;5.40;;;;;;;0.24;42.88;98101.17;104936;1253;98417;-74
2024/01/22 05:52:15;;;;;;;9.40;4.80;;;;;;;0.20;43.09;98099.02;105029;1259;98581;-74
2024/01/22 05:54:43;;;;;;;9.70;4.70;;;;;;;0.17;43.23;98103.66;104974;1256;102070;-74
2024/01/22 05:57:11;;;;;;;9.50;4.90;;;;;;;0.12;43.24;98106.73;104680;1262;100529;-78
2024/01/22 05:59:39;;;;;;;12.40;5.30;;;;;;;0.06;43.22;98095.44;104948;1257;100041;-77
2024/01/22 06:02:07;;;;;;;9.10;5.20;;;;;;;0.03;43.39;98089.85;105056;1262;97891;-76
2024/01/22 06:04:44;;;;;;;9.90;5.40;;;;;;;0.01;43.24;98090.37;104954;1260;98336;-77
2024/01/22 06:07:11;;;;;;;11.00;5.80;;;;;;;0.02;43.21;98089.56;104970;1259;102248;-76
2024/01/22 06:09:39;;;;;;;8.80;5.50;;;;;;;0.04;43.11;98084.61;104943;1258;101892;-77
2024/01/22 06:12:08;;;;;;;10.30;5.50;;;;;;;0.02;42.91;98083.94;104955;1259;99071;-76
2024/01/22 06:14:36;;;;;;;10.10;5.30;;;;;;;0.03;43.02;98085.07;104977;1263;97931;-76
2024/01/22 06:17:04;;;;;;;7.80;4.70;;;;;;;0.05;43.18;98074.42;105047;1259;98347;-78
2024/01/22 06:19:32;;;;;;;8.20;4.40;;;;;;;0.05;43.62;98070.02;104923;1253;102324;-76
2024/01/22 06:22:00;;;;;;;9.20;4.80;;;;;;;0.04;43.73;98076.16;105018;1259;100217;-76
2024/01/22 06:24:27;;;;;;;9.10;5.00;;;;;;;0.01;43.80;98073.02;104947;1257;100177;-77
2024/01/22 06:26:55;;;;;;;10.20;5.30;;;;;;;-0.00;43.67;98073.13;104952;1259;98326;-75
2024/01/22 06:29:23;;;;;;;8.70;5.20;;;;;;;-0.01;43.77;98070.34;104950;1259;98365;-77
2024/01/22 06:31:51;;;;;;;12.70;5.30;;;;;;;-0.00;43.86;98059.49;104945;1258;103632;-78
2024/01/22 06:34:19;;;;;;;7.40;5.00;;;;;;;-0.02;43.81;98054.36;104974;1253;101409;-78
2024/01/22 06:36:47;;;;;;;14.90;8.50;;;;;;;-0.04;43.48;98056.68;104983;1256;100255;-76
2024/01/22 06:39:14;;;;;;;11.20;6.60;;;;;;;-0.04;43.33;98055.95;104865;1258;98837;-78
2024/01/22 06:41:42;;;;;;;13.30;5.80;;;;;;;-0.02;43.10;98059.66;105034;1257;99499;-78
2024/01/22 06:44:10;;;;;;;11.20;5.80;;;;;;;0.00;43.27;98062.83;104966;1258;103648;-77
2024/01/22 06:46:38;;;;;;;9.30;5.50;;;;;;;0.01;43.42;98067.52;104933;1253;100401;-77
2024/01/22 06:49:06;;;;;;;9.30;5.70;;;;;;;0.02;43.24;98064.44;104946;1267;99926;-76
2024/01/22 06:51:35;;;;;;;12.00;6.00;;;;;;;0.03;42.93;98064.92;105004;1259;99233;-75
2024/01/22 06:54:03;;;;;;;13.10;5.50;;;;;;;0.07;42.88;98057.27;105009;1258;98444;-79
2024/01/22 06:56:31;;;;;;;12.40;5.50;;;;;;;0.10;42.98;98062.20;104971;1256;102471;-72
2024/01/22 06:58:59;;;;;;;10.30;5.50;;;;;;;0.10;43.08;98059.18;104971;1253;101393;-73
2024/01/22 07:01:27;;;;;;;13.60;5.20;;;;;;;0.09;43.28;98055.56;105035;1258;99106;-72
2024/01/22 07:03:55;;;;;;;11.90;4.80;;;;;;;0.08;43.08;98051.73;104934;1265;97841;-74
2024/01/22 07:06:23;;;;;;;8.50;4.60;;;;;;;0.08;43.05;98050.49;105004;1259;98339;-73
2024/01/22 07:08:50;;;;;;;8.30;4.90;;;;;;;0.08;42.99;98046.08;104976;1256;103682;-73
2024/01/22 07:11:19;;;;;;;10.90;5.00;;;;;;;0.08;42.96;98033.53;105002;1258;99235;-73
2024/01/22 07:13:46;;;;;;;10.30;5.00;;;;;;;0.09;42.98;98032.15;104944;1261;99125;-74
2024/01/22 07:16:14;;;;;;;10.10;5.00;;;;;;;0.11;43.20;98028.86;104977;1259;97906;-74
2024/01/22 07:18:42;;;;;;;9.00;4.30;;;;;;;0.11;43.23;98022.44;104752;1253;97910;-73
2024/01/22 07:21:10;;;;;;;8.50;4.80;;;;;;;0.12;43.24;98020.19;104986;1253;103274;-73
2024/01/22 07:23:38;;;;;;;9.20;4.50;;;;;;;0.12;43.29;98009.20;104972;1257;100465;-73
2024/01/22 07:26:06;;;;;;;8.00;4.50;;;;;;;0.12;43.37;98008.40;104930;1257;99823;-75
2024/01/22 07:28:33;;;;;;;7.40;4.30;;;;;;;0.09;43.45;98009.31;104952;1256;98535;-74
2024/01/22 07:31:01;;;;;;;7.00;4.60;;;;;;;0.09;43.53;98009.65;105038;1273;98837;-75
2024/01/22 07:33:30;;;;;;;10.60;4.80;;;;;;;0.10;43.58;98003.21;105030;1256;102419;-76
2024/01/22 07:35:57;;;;;;;7.20;4.40;;;;;;;0.11;43.43;98000.35;104984;1256;100389;-75
2024/01/22 07:38:25;;;;;;;9.70;5.30;;;;;;;0.13;43.46;97996.44;104970;1260;99754;-74
2024/01/22 07:40:53;;;;;;;7.70;4.00;;;;;;;0.17;43.36;97999.96;104900;1259;97903;-74
2024/01/22 07:43:21;;;;;;;10.70;4.90;;;;;;;0.22;43.31;98009.14;104971;1261;99173;-75
2024/01/22 07:45:48;;;;;;;9.40;5.70;;;;;;;0.26;43.53;97999.17;104934;1257;102866;-74
2024/01/22 07:48:16;;;;;;;10.10;4.00;;;;;;;0.30;43.44;97996.53;104940;1253;101282;-76
2024/01/22 07:50:44;;;;;;;8.70;4.70;;;;;;;0.35;43.25;97996.44;104936;1259;99971;-76
2024/01/22 07:53:12;;;;;;;10.30;4.60;;;;;;;0.41;43.03;97992.55;104988;1259;97908;-75
2024/01/22 07:55:39;;;;;;;9.40;5.00;;;;;;;0.49;42.85;97996.16;104978;1259;99297;-76
2024/01/22 07:58:07;;;;;;;7.40;4.10;;;;;;;0.56;42.73;97988.76;104990;1259;103515;-76
2024/01/22 08:00:35;;;;;;;9.40;5.10;;;;;;;0.63;42.48;97987.23;104953;1256;100313;-74
2024/01/22 08:03:03;;;;;;;10.70;5.10;;;;;;;0.71;41.88;97981.55;105045;1258;99948;-75
2024/01/22 08:40:54;;;;;;;9.30;5.00;;;;;;;1.83;39.81;97925.16;105010;1270;115404;-79
2024/01/22 08:43:22;;;;;;;11.70;4.90;;;;;;;1.91;40.11;97924.05;104625;1274;102089;-78
2024/01/22 08:45:50;;;;;;;9.90;5.30;;;;;;;2.00;39.77;97928.86;104675;1263;100584;-80
2024/01/22 08:48:18;;;;;;;9.40;5.20;;;;;;;2.12;39.86;97924.59;104730;1270;98051;-78
2024/01/22 08:50:45;;;;;;;14.50;6.70;;;;;;;2.24;39.49;97921.42;104635;1261;98449;-78
2024/01/22 08:53:14;;;;;;;11.80;5.50;;;;;;;2.34;39.32;97919.05;104645;1261;104138;-78
2024/01/22 08:55:41;;;;;;;13.10;6.10;;;;;;;2.42;39.68;97913.98;104715;1261;102322;-79
2024/01/22 08:58:09;;;;;;;12.70;6.70;;;;;;;2.53;39.33;97906.15;104579;1271;100761;-78
2024/01/22 09:00:37;;;;;;;10.70;5.70;;;;;;;2.65;39.29;97895.08;104690;1261;98044;-81
2024/01/22 09:03:05;;;;;;;12.20;6.00;;;;;;;2.77;38.63;97890.67;104706;1263;98355;-78
2024/01/22 09:05:33;;;;;;;12.20;6.20;;;;;;;2.84;38.50;97889.27;104619;1261;104299;-79
2024/01/22 09:08:01;;;;;;;11.60;6.50;;;;;;;2.90;37.85;97892.19;108477;1257;101660;-78
2024/01/22 09:10:29;;;;;;;12.40;6.10;;;;;;;2.99;37.24;97885.48;108440;1256;100131;-79
2024/01/22 09:12:57;;;;;;;10.60;5.10;;;;;;;3.13;37.93;97883.34;108407;1256;95579;-78
2024/01/22 09:15:24;;;;;;;10.40;5.80;;;;;;;3.30;36.90;97888.45;108429;1257;96048;-79
2024/01/22 09:17:52;;;;;;;10.00;5.20;;;;;;;3.41;37.28;97877.36;108459;1257;103732;-79
2024/01/22 09:20:21;;;;;;;12.00;5.50;;;;;;;3.52;37.49;97865.38;108440;1257;101658;-78
2024/01/22 09:22:49;;;;;;;9.10;5.40;;;;;;;3.64;37.23;97865.13;108397;1257;100200;-81
2024/01/22 09:25:19;;;;;;;9.20;4.80;;;;;;;3.75;36.57;97852.84;108468;1257;95909;-79
2024/01/22 09:27:48;;;;;;;9.40;5.30;;;;;;;3.83;35.90;97853.54;108459;1257;95566;-82
2024/01/22 09:30:16;;;;;;;11.40;6.00;;;;;;;3.91;35.99;97838.29;108415;1257;102686;-80
2024/01/22 09:32:44;;;;;;;10.10;4.90;;;;;;;4.01;35.59;97832.65;108378;1256;100416;-80
2024/01/22 09:35:13;;;;;;;8.30;5.10;;;;;;;4.13;35.72;97824.83;108395;1256;100114;-80
2024/01/22 09:37:41;;;;;;;10.20;4.90;;;;;;;4.28;36.50;97818.98;108377;1257;95644;-80
2024/01/22 09:40:11;;;;;;;10.70;5.70;;;;;;;4.43;35.89;97815.95;108443;1257;95529;-80
2024/01/22 09:42:43;;;;;;;9.10;5.20;;;;;;;4.58;35.93;97811.06;108463;1256;103553;-80
2024/01/22 09:45:11;;;;;;;11.30;5.30;;;;;;;4.74;35.40;97803.48;108464;1257;100001;-80
2024/01/22 09:47:39;;;;;;;10.80;5.20;;;;;;;4.89;34.67;97802.20;108424;1256;99988;-80
2024/01/22 09:50:08;;;;;;;9.50;5.40;;;;;;;4.98;34.97;97796.38;108385;1256;95750;-79
2024/01/22 09:52:36;;;;;;;10.10;5.30;;;;;;;5.06;35.37;97791.39;108415;1257;96614;-80
2024/01/22 09:55:04;;;;;;;10.10;5.20;;;;;;;5.18;35.77;97783.83;108425;1256;102538;-79
2024/01/22 09:57:32;;;;;;;8.40;5.30;;;;;;;5.35;35.83;97780.67;108440;1257;100126;-78
2024/01/22 10:00:00;;;;;;;10.40;5.30;;;;;;;5.51;35.50;97769.63;108386;1256;98872;-79
2024/01/22 10:02:29;;;;;;;12.90;5.40;;;;;;;5.58;34.39;97764.05;108427;1256;95577;-80
2024/01/22 10:04:58;;;;;;;7.80;4.70;;;;;;;5.67;33.87;97758.08;108406;1256;95838;-80
2024/01/22 10:07:26;;;;;;;9.90;5.70;;;;;;;5.87;34.36;97748.08;108435;1256;103791;-82
2024/01/22 10:09:53;;;;;;;7.30;4.20;;;;;;;6.08;34.30;97738.02;108411;1257;101549;-80
2024/01/22 10:12:21;;;;;;;9.70;5.10;;;;;;;6.31;34.55;97728.29;108455;1256;100204;-80
2024/01/22 10:14:49;;;;;;;8.20;4.60;;;;;;;6.52;34.03;97723.66;108416;1257;95570;-81
2024/01/22 10:17:18;;;;;;;8.60;4.60;;;;;;;6.65;33.88;97716.89;108443;1257;95892;-81
2024/01/22 10:19:48;;;;;;;8.20;4.40;;;;;;;6.77;33.92;97711.19;108466;1256;103839;-79
2024/01/22 10:22:20;;;;;;;9.60;5.00;;;;;;;6.89;33.74;97703.75;108441;1256;101413;-80
2024/01/22 10:25:01;;;;;;;9.30;4.70;;;;;;;7.00;33.42;97692.41;108385;1256;99105;-79
2024/01/22 10:27:29;;;;;;;9.20;4.80;;;;;;;7.01;32.43;97690.33;108411;1256;95685;-80
2024/01/22 10:30:11;;;;;;;7.90;4.20;;;;;;;7.01;32.52;97680.50;108400;1256;95845;-79
2024/01/22 10:32:39;;;;;;;9.80;4.60;;;;;;;7.04;32.07;97675.06;108406;1257;103821;-79
2024/01/22 10:35:22;;;;;;;7.70;4.80;;;;;;;7.14;32.60;97669.60;108433;1257;101723;-79
2024/01/22 10:38:06;;;;;;;11.80;5.30;;;;;;;7.19;32.64;97670.05;108411;1256;100234;-79
2024/01/22 10:40:34;;;;;;;10.10;5.10;;;;;;;7.18;32.51;97667.52;108426;1256;95739;-80
2024/01/22 10:43:21;;;;;;;9.70;5.20;;;;;;;7.16;32.52;97669.17;108462;1257;95703;-79
2024/01/22 10:45:50;;;;;;;10.50;5.40;;;;;;;7.15;32.41;97673.17;108417;1256;103831;-80
2024/01/22 10:48:20;;;;;;;10.50;5.10;;;;;;;7.12;32.36;97670.02;108472;1256;101577;-80
2024/01/22 10:50:48;;;;;;;9.00;4.60;;;;;;;7.06;32.38;97664.11;108326;1256;99979;-80
2024/01/22 10:53:16;;;;;;;13.80;6.20;;;;;;;7.01;32.61;97663.12;108411;1256;95624;-81
2024/01/22 10:55:58;;;;;;;10.20;5.30;;;;;;;6.94;32.79;97659.50;108437;1256;95906;-79
2024/01/22 10:58:27;;;;;;;;;;;;;;;6.84;32.54;97652.17;108467;1256;103782;-79
2024/01/22 11:01:02;;;;;;;9.80;4.90;;;;;;;6.77;32.44;97653.61;108466;1256;101592;-79
2024/01/22 11:03:36;;;;;;;10.80;5.40;;;;;;;6.69;32.60;97661.86;108423;1256;100328;-79
2024/01/22 11:06:06;;;;;;;9.60;5.20;;;;;;;6.66;32.28;97651.19;108423;1256;95595;-79
2024/01/22 11:08:36;;;;;;;7.20;4.50;;;;;;;6.61;32.14;97646.20;108428;1256;95656;-80
2024/01/22 11:11:05;;;;;;;8.40;4.60;;;;;;;6.62;33.06;97648.66;108453;1256;103750;-79
2024/01/22 11:13:33;;;;;;;6.50;4.00;;;;;;;6.67;33.54;97638.75;108446;1256;101768;-79
2024/01/22 11:16:03;;;;;;;7.40;4.20;;;;;;;6.74;33.58;97639.69;108403;1256;99017;-79
2024/01/22 11:18:31;;;;;;;8.40;4.30;;;;;;;6.79;33.45;97644.64;108410;1256;95674;-80
2024/01/22 11:21:20;;;;;;;9.40;4.50;;;;;;;6.83;33.43;97650.70;108448;1256;95697;-79
2024/01/22 11:24:10;;;;;;;7.60;3.80;;;;;;;6.87;33.15;97649.69;108448;1256;103725;-79
2024/01/22 11:26:44;;;;;;;8.00;4.10;;;;;;;6.92;33.00;97647.03;108450;1256;100069;-79
2024/01/22 11:29:15;;;;;;;10.50;4.60;;;;;;;6.97;32.69;97639.25;108475;1256;100066;-79
2024/01/22 11:31:43;;;;;;;8.30;4.40;;;;;;;7.04;32.93;97646.69;108453;1256;95566;-79
2024/01/22 11:34:11;;;;;;;7.50;4.20;;;;;;;7.10;32.97;97640.41;108437;1256;95565;-79
2024/01/22 11:36:57;;;;;;;9.10;3.80;;;;;;;7.20;33.33;97638.30;108456;1257;103527;-79
2024/01/22 11:39:34;;;;;;;10.50;4.10;;;;;;;7.31;32.92;97640.90;108447;1256;102028;-80
2024/01/22 11:42:29;;;;;;;6.10;4.10;;;;;;;7.43;32.86;97633.80;108443;1256;108485;-79
2024/01/22 11:45:00;;;;;;;6.50;3.60;;;;;;;7.59;32.96;97636.73;108379;1257;95620;-79
2024/01/22 11:47:32;;;;;;;6.80;3.50;;;;;;;7.67;32.72;97633.07;108436;1256;95556;-78
2024/01/22 11:50:04;;;;;;;5.60;3.10;;;;;;;7.70;31.32;97632.50;108479;1256;103850;-78
2024/01/22 11:52:33;;;;;;;6.40;3.50;;;;;;;7.73;31.83;97636.09;108439;1256;101680;-79
2024/01/22 11:55:06;;;;;;;6.50;3.40;;;;;;;7.77;32.03;97630.59;108449;1256;100028;-79
2024/01/22 11:57:38;;;;;;;6.50;3.40;;;;;;;7.77;31.93;97626.08;108448;1256;95545;-79
2024/01/22 12:00:10;;;;;;;6.90;3.60;;;;;;;7.80;31.51;97625.38;108482;1256;95630;-79
2024/01/22 12:02:40;;;;;;;4.20;1.80;;;;;;;7.88;31.22;97628.09;108435;1256;103761;-79
2024/01/22 12:05:10;;;;;;;1.70;1.30;;;;;;;8.11;29.46;97623.83;108412;1256;101817;-80
2024/01/22 12:07:42;;;;;;;2.90;1.60;;;;;;;8.40;27.40;97630.40;108391;1256;100115;-79
2024/01/22 12:10:29;;;;;;;4.90;1.60;;;;;;;8.73;27.82;97623.55;108398;1256;95753;-79